Thuringia — D5EG7 — position and weather

sailwx.info

Track history (hours):
 
Tides and Currents Weather Stations Pressure Air Temp Water Temp Dewpoint Dewpoint Depression Visibility Wind Speed Wind Dir Waves Ship Positions

Thuringia

Last reported at 2017-Oct-20 07:19 UTC. Time now 2017-Oct-20 14:11 UTC.
Position N 22°07' E 114°01'.

Length 260 m; draft 9.9 m.

Type: Ship. MMSI: 636016073.

Date/timePositionNaut miles runAvg speedWind from/ knotsBaromVisibWave heightAir tempDewpointWater temp
2017-Oct-20 07:19N 22°07' E 114°01'1911.5
2017-Oct-20 05:37N 22°22' E 113°47'215.5
2017-Oct-20 05:30N 22°24' E 113°46'715.4
2017-Oct-20 05:00N 22°31' E 113°44'714.5
2017-Oct-20 04:30N 22°38' E 113°42'0 0.8
2017-Oct-20 03:59N 22°38' E 113°41'0 0.0
2017-Oct-20 03:14N 22°38' E 113°41'0 0.0
2017-Oct-20 02:59N 22°38' E 113°41'0 0.0
2017-Oct-20 02:20N 22°38' E 113°41'0 0.0
2017-Oct-20 01:59N 22°38' E 113°41'0 0.0
2017-Oct-20 01:26N 22°38' E 113°41'0 0.0
2017-Oct-20 00:56N 22°38' E 113°41'0 0.0
2017-Oct-20 00:29N 22°38' E 113°41'0 0.0
2017-Oct-19 23:59N 22°38' E 113°41'0 0.0
2017-Oct-19 23:20N 22°38' E 113°41'0 0.0
2017-Oct-19 22:53N 22°38' E 113°41'0 0.0
2017-Oct-19 22:23N 22°38' E 113°41'0 0.0
2017-Oct-19 20:59N 22°38' E 113°41'0 0.0
2017-Oct-19 20:23N 22°38' E 113°41'0 0.0
2017-Oct-19 19:35N 22°38' E 113°41'0 0.1
2017-Oct-19 19:29N 22°38' E 113°41'0 0.0
2017-Oct-19 18:32N 22°38' E 113°41'0 0.1
2017-Oct-19 18:29N 22°38' E 113°41'0 0.0
2017-Oct-19 17:53N 22°38' E 113°41'0 0.0
2017-Oct-19 16:59N 22°38' E 113°41'0 0.0
2017-Oct-19 16:29N 22°38' E 113°41'0 0.0
2017-Oct-19 15:47N 22°38' E 113°41'0 0.0
2017-Oct-19 14:23N 22°38' E 113°41'0 0.0
2017-Oct-19 13:51N 22°38' E 113°41'0 0.7
2017-Oct-19 13:30N 22°38' E 113°41'510.8
2017-Oct-19 13:00N 22°33' E 113°44'815.0
2017-Oct-19 12:30N 22°25' E 113°46'714.9
2017-Oct-19 12:00N 22°18' E 113°48'30 7.1
2017-Oct-19 07:42N 22°08' E 114°19'212.9
2017-Oct-19 07:30N 22°07' E 114°21'612.8
2017-Oct-19 07:01N 22°07' E 114°28'611.6
2017-Oct-19 06:29N 22°07' E 114°35'612.3
2017-Oct-19 06:01N 22°09' E 114°41'612.1
2017-Oct-19 05:31N 22°09' E 114°47'612.2
2017-Oct-19 05:00N 22°10' E 114°54'712.1
2017-Oct-19 04:27N 22°11' E 115°01'612.7
2017-Oct-19 04:00N 22°12' E 115°07'712.7
2017-Oct-19 03:29N 22°14' E 115°14'  
2017-Oct-13 20:07N 24°09' E 118°50'0 2.7
2017-Oct-13 19:59N 24°09' E 118°49'7 2.4
2017-Oct-13 17:11N 24°04' E 118°45'4 2.3
2017-Oct-13 15:39N 24°03' E 118°41'0 3.1
2017-Oct-13 15:30N 24°02' E 118°41'2 3.3
2017-Oct-13 14:59N 24°01' E 118°39'2 2.7
2017-Oct-13 14:23N 24°00' E 118°38'1 2.3
2017-Oct-13 13:56N 23°60' E 118°37'1 2.5
2017-Oct-13 13:27N 23°59' E 118°36'4 1.7
2017-Oct-13 11:16N 23°56' E 118°33'1 2.0
2017-Oct-13 10:52N 23°56' E 118°33'1 1.8
2017-Oct-13 10:30N 23°55' E 118°32'1 1.7
2017-Oct-13 09:59N 23°55' E 118°31'1 2.8
2017-Oct-13 09:30N 23°54' E 118°30'2 2.7
2017-Oct-13 08:39N 23°53' E 118°28'1 3.5
2017-Oct-13 08:27N 23°52' E 118°27'2 3.7
2017-Oct-13 07:57N 23°51' E 118°26'1 3.2
2017-Oct-13 07:30N 23°50' E 118°25'  
Track history (hours):
 
Tides and Currents Weather Stations Pressure Air Temp Water Temp Dewpoint Dewpoint Depression Visibility Wind Speed Wind Dir Waves Ship Positions

Thuringia

Last reported at 2017-Oct-20 07:19 UTC. Time now 2017-Oct-20 14:11 UTC.
Position N 22°07' E 114°01'.

Length 260 m; draft 9.9 m.

Type: Ship. MMSI: 636016073.

Date/timePositionNaut miles runAvg speedWind from/ knotsBaromVisibWave heightAir tempDewpointWater temp
2017-Oct-20 07:19N 22°07' E 114°01'1911.5
2017-Oct-20 05:37N 22°22' E 113°47'215.5
2017-Oct-20 05:30N 22°24' E 113°46'715.4
2017-Oct-20 05:00N 22°31' E 113°44'714.5
2017-Oct-20 04:30N 22°38' E 113°42'0 0.8
2017-Oct-20 03:59N 22°38' E 113°41'0 0.0
2017-Oct-20 03:14N 22°38' E 113°41'0 0.0
2017-Oct-20 02:59N 22°38' E 113°41'0 0.0
2017-Oct-20 02:20N 22°38' E 113°41'0 0.0
2017-Oct-20 01:59N 22°38' E 113°41'0 0.0
2017-Oct-20 01:26N 22°38' E 113°41'0 0.0
2017-Oct-20 00:56N 22°38' E 113°41'0 0.0
2017-Oct-20 00:29N 22°38' E 113°41'0 0.0
2017-Oct-19 23:59N 22°38' E 113°41'0 0.0
2017-Oct-19 23:20N 22°38' E 113°41'0 0.0
2017-Oct-19 22:53N 22°38' E 113°41'0 0.0
2017-Oct-19 22:23N 22°38' E 113°41'0 0.0
2017-Oct-19 20:59N 22°38' E 113°41'0 0.0
2017-Oct-19 20:23N 22°38' E 113°41'0 0.0
2017-Oct-19 19:35N 22°38' E 113°41'0 0.1
2017-Oct-19 19:29N 22°38' E 113°41'0 0.0
2017-Oct-19 18:32N 22°38' E 113°41'0 0.1
2017-Oct-19 18:29N 22°38' E 113°41'0 0.0
2017-Oct-19 17:53N 22°38' E 113°41'0 0.0
2017-Oct-19 16:59N 22°38' E 113°41'0 0.0
2017-Oct-19 16:29N 22°38' E 113°41'0 0.0
2017-Oct-19 15:47N 22°38' E 113°41'0 0.0
2017-Oct-19 14:23N 22°38' E 113°41'0 0.0
2017-Oct-19 13:51N 22°38' E 113°41'0 0.7
2017-Oct-19 13:30N 22°38' E 113°41'510.8
2017-Oct-19 13:00N 22°33' E 113°44'815.0
2017-Oct-19 12:30N 22°25' E 113°46'714.9
2017-Oct-19 12:00N 22°18' E 113°48'30 7.1
2017-Oct-19 07:42N 22°08' E 114°19'212.9
2017-Oct-19 07:30N 22°07' E 114°21'612.8
2017-Oct-19 07:01N 22°07' E 114°28'611.6
2017-Oct-19 06:29N 22°07' E 114°35'612.3
2017-Oct-19 06:01N 22°09' E 114°41'612.1
2017-Oct-19 05:31N 22°09' E 114°47'612.2
2017-Oct-19 05:00N 22°10' E 114°54'712.1
2017-Oct-19 04:27N 22°11' E 115°01'612.7
2017-Oct-19 04:00N 22°12' E 115°07'712.7
2017-Oct-19 03:29N 22°14' E 115°14'  
2017-Oct-13 20:07N 24°09' E 118°50'0 2.7
2017-Oct-13 19:59N 24°09' E 118°49'7 2.4
2017-Oct-13 17:11N 24°04' E 118°45'4 2.3
2017-Oct-13 15:39N 24°03' E 118°41'0 3.1
2017-Oct-13 15:30N 24°02' E 118°41'2 3.3
2017-Oct-13 14:59N 24°01' E 118°39'2 2.7
2017-Oct-13 14:23N 24°00' E 118°38'1 2.3
2017-Oct-13 13:56N 23°60' E 118°37'1 2.5
2017-Oct-13 13:27N 23°59' E 118°36'4 1.7
2017-Oct-13 11:16N 23°56' E 118°33'1 2.0
2017-Oct-13 10:52N 23°56' E 118°33'1 1.8
2017-Oct-13 10:30N 23°55' E 118°32'1 1.7
2017-Oct-13 09:59N 23°55' E 118°31'1 2.8
2017-Oct-13 09:30N 23°54' E 118°30'2 2.7
2017-Oct-13 08:39N 23°53' E 118°28'1 3.5
2017-Oct-13 08:27N 23°52' E 118°27'2 3.7
2017-Oct-13 07:57N 23°51' E 118°26'1 3.2
2017-Oct-13 07:30N 23°50' E 118°25'  

Dump ship's entire track history